10:01
Airports
History
Links
Donate
Help keep this website running!
PayPal
Bitcoin
This page is community maintained. The information is intended for PC simulator navigation or reference.
Always use approved charts for navigation.
SBPF
Lauro Kurtz
Lauro Kurtz (SBPF)
Zona Rural - Passo Fundo, Rio Grande do Sul, Brazil (99001)
(U)
Lat/Lng:28° 14' 38.37" S / 52° 19' 39.62" W
-28.243991 / -52.327671
Elevation:2376'ft / 724mMSL
ID / ICAO:SBPF
Runways:1
Longest:08-26
Asphalt 1,706m / 5,597ft
METAR08:00 GMT 2017-11-18
Altimeter: 29.74
Visibility: 6.2 statute miles
Wind: 10 knots (from 080°)
Temp: 17°c / 63°f
Humidity: 88.0%

METAR: SBPF 180800Z 08010KT 9999 FEW005 SCT009 BKN040 17/15 Q1007

(Powered by phpweather)
Airport Radio Frequencies
Tower: 131.25
Runway 08 / 26
Dimensions:1705.9 x 22.9m 5597' x 75'ft
Surface:Asphalt
Edge Lights:Low intensity
Runway 08 [A]Runway 26 [B]
Heading:068°TH 248°TH
Lat:
Lng:
28° 14' 48.66"S
52° 20' 8.82"W
28° 14' 28.07"S
52° 19' 10.41"W
User Notes and Comments
28° 14' 38.37" S / 52° 19' 39.62" W
Distance To
Airport ID:
Nearby Airports
4 Fazenda Coxilha 8.8 NM
SSCX N
(C) Aeroclub 11.5 NM
SSAQ W 267°
4 Fazenda Santa Terezinha 26.0 NM
SIYR ENE 59°
(C) Getulio Vargas 27.7 NM
SSGV NNE 18°
(C) Carazinho 30.3 NM
SSKZ W 259°
4 Agropecuaria Monte Alverne 34.8 NM
SSYQ WSW 254°
(C) Sarandi 37.4 NM
SSXD WNW 299°
VFR Chart
Flight Planning at SkyVector.com